Greenville Downtown Airport
KGMU : now visible

Airfield :











YOU CAN JOIN US ON...

 
LOGIN :

Register | Disclaimer

   EN    FR    IT 

 









Legend :    VFR   Marginal VFR   IFR   Intensive IFR   Very Intensive IFR
Visi :
Ceiling :
>= 8 km
>= 3000ft
5 to 8 km
1000 to 3000 ft
1500m to 5 km
500 to 1000 ft
800 to 1500m
200 to 500 ft
< 800m
< 200 ft
Symbols :   Thunderstorms  Fog  Heavy snow  Heavy precipitations  Wind > 20 kt






- Airport Elevation : 1048 ft


KGMU - Greenville Downtown

CURRENT METAR :
  • 291853Z 20006KT 10SM OVC022 13/02 A3023 RMK AO2 SLP238 T01280017 $

EXPIRED METARs :
  • 291753Z 23007KT 10SM BKN020 BKN037 OVC048 13/01 A3025 RMK AO2 SLP247 T01330006 10133 20056 58016 $
  • 291653Z 21007KT 10SM OVC026 12/M01 A3030 RMK AO2 SLP261 T01221011 $

TAF KGMU
Valid from the 29 at 18:00 until the 30 at 18:00 UTC


291739Z 2918/3018 22008KT P6SM OVC024
TEMPO 2922/3002 4SM -RA BR OVC016
FM300200 24005KT P6SM -RA OVC011
FM300500 24004KT 4SM -RA BR OVC007
FM300900 25003KT 3SM BR VCSH OVC004
FM301200 24005KT 2SM BR OVC003
FM301500 24005KT P6SM OVC007
FM301700 25006KT P6SM BKN016
KZTL FIR / North America



MET'MAP, your aeronautical weather chart ! - Copyright ORBIFLY December 2007 - Disclaimer

ORBIFLY MET'MAP TEAM :

Programming & Development : Alexandra Zaïnal
Original concept : Baudouin d'Aumeries
Technical & hardware support : Manuel Goepfert
Assistance : Marc-Olivier Méhu




SOURCES & CREDITS :

   NOAA       Earth
Advisory